createdAt,value
2023-06-18T04:02:10.499Z,82.00
2023-06-18T04:06:22.202Z,81.61
2023-06-18T04:10:33.785Z,81.71
2023-06-18T04:14:45.381Z,82.12
2023-06-18T04:18:57.201Z,82.42
2023-06-18T04:23:09.756Z,81.91
2023-06-18T04:27:21.950Z,81.30
2023-06-18T04:31:33.645Z,81.65
2023-06-18T04:35:46.418Z,81.67
2023-06-18T04:39:59.288Z,81.80
2023-06-18T04:44:14.072Z,80.71
2023-06-18T04:48:28.625Z,79.70
2023-06-18T04:52:40.316Z,78.85
2023-06-18T04:56:53.342Z,78.14
2023-06-18T05:01:05.070Z,78.73
2023-06-18T05:05:17.162Z,77.10
2023-06-18T05:09:30.697Z,70.10
2023-06-18T05:13:42.295Z,65.59
2023-06-18T05:17:53.868Z,63.55
2023-06-18T05:22:06.617Z,60.77
2023-06-18T05:26:19.046Z,56.93
2023-06-18T05:30:30.774Z,52.08
2023-06-18T05:34:43.212Z,47.77
2023-06-18T05:39:00.229Z,44.02
2023-06-18T05:43:14.267Z,42.81
2023-06-18T05:47:31.453Z,39.60
2023-06-18T05:51:46.314Z,39.33
2023-06-18T05:55:58.814Z,37.44
2023-06-18T06:00:12.563Z,35.71
2023-06-18T06:04:27.822Z,35.98
2023-06-18T06:08:39.450Z,34.62
2023-06-18T06:12:54.781Z,33.77
2023-06-18T06:17:08.343Z,34.42
2023-06-18T06:21:20.535Z,33.43
2023-06-18T06:25:32.679Z,32.44
2023-06-18T06:29:44.514Z,32.55
2023-06-18T06:33:57.227Z,33.38
2023-06-18T06:38:09.921Z,36.83
2023-06-18T06:42:21.986Z,39.07
2023-06-18T06:46:53.534Z,39.75
2023-06-18T06:51:10.881Z,40.30
2023-06-18T06:55:29.006Z,38.78
2023-06-18T06:59:40.751Z,39.48
2023-06-18T07:03:52.740Z,40.05
2023-06-18T07:08:06.530Z,40.62
2023-06-18T07:12:19.745Z,39.67
2023-06-18T07:16:33.662Z,40.93
2023-06-18T07:20:45.344Z,40.63
2023-06-18T07:24:57.928Z,41.20
2023-06-18T07:29:09.520Z,42.19
2023-06-18T07:33:21.921Z,41.91
2023-06-18T07:37:33.773Z,40.75
2023-06-18T07:41:48.511Z,41.04
2023-06-18T07:46:00.216Z,41.22
2023-06-18T07:50:11.869Z,41.22
2023-06-18T07:54:23.597Z,42.18
2023-06-18T07:58:35.204Z,41.73
2023-06-18T08:02:47.446Z,40.77
2023-06-18T08:06:59.156Z,41.51
2023-06-18T08:11:10.814Z,40.16
2023-06-18T08:15:23.735Z,41.21
2023-06-18T08:19:38.141Z,39.33
2023-06-18T08:23:51.122Z,40.31
2023-06-18T08:28:02.786Z,39.80
2023-06-18T08:32:14.672Z,38.62
2023-06-18T08:36:26.694Z,36.42
2023-06-18T08:40:50.920Z,37.49
2023-06-18T08:45:02.515Z,36.22
2023-06-18T08:49:15.720Z,35.36
2023-06-18T08:53:35.725Z,36.61
2023-06-18T08:58:12.590Z,37.74
2023-06-18T09:02:26.078Z,37.55
2023-06-18T09:06:40.538Z,36.79
2023-06-18T09:10:55.797Z,34.83
2023-06-18T09:15:08.284Z,35.59
2023-06-18T09:19:21.398Z,37.92
2023-06-18T09:23:33.403Z,35.21
2023-06-18T09:27:45.884Z,36.00
2023-06-18T09:31:57.485Z,37.41
2023-06-18T09:36:09.863Z,35.36
2023-06-18T09:40:23.465Z,35.04
2023-06-18T09:44:35.296Z,34.37
2023-06-18T09:48:47.878Z,33.64
2023-06-18T09:53:04.561Z,34.16
2023-06-18T09:57:17.227Z,30.57
2023-06-18T10:01:30.882Z,28.05
2023-06-18T10:05:43.039Z,30.07
2023-06-18T10:09:56.767Z,30.94
2023-06-18T10:14:14.144Z,31.68
2023-06-18T10:18:26.653Z,31.89
2023-06-18T10:22:45.200Z,31.10
2023-06-18T10:26:57.359Z,30.76
2023-06-18T10:31:09.348Z,31.71
2023-06-18T10:35:21.752Z,30.76
2023-06-18T10:39:35.243Z,30.44
2023-06-18T10:43:52.435Z,29.01
2023-06-18T10:48:19.522Z,29.29
2023-06-18T10:52:35.076Z,29.39
2023-06-18T10:56:52.828Z,30.39
2023-06-18T11:01:04.841Z,28.79
2023-06-18T11:05:35.312Z,27.96
2023-06-18T11:09:57.337Z,28.81
2023-06-18T11:14:20.532Z,30.28
2023-06-18T11:18:33.240Z,28.21
2023-06-18T11:22:45.558Z,28.02
2023-06-18T11:26:57.767Z,28.54
2023-06-18T11:31:09.612Z,29.49
2023-06-18T11:35:21.703Z,28.61
2023-06-18T11:39:34.648Z,29.61
2023-06-18T11:43:47.749Z,29.08
2023-06-18T11:47:59.473Z,29.49
2023-06-18T11:52:13.153Z,30.42
2023-06-18T11:56:29.477Z,29.80
2023-06-18T12:00:41.274Z,29.42
2023-06-18T12:04:53.297Z,28.14
2023-06-18T12:09:09.866Z,29.53
2023-06-18T12:13:31.995Z,28.29
2023-06-18T12:18:04.928Z,27.76
2023-06-18T12:22:17.445Z,28.12
2023-06-18T12:26:29.457Z,27.57
2023-06-18T12:30:42.507Z,27.52
2023-06-18T12:34:54.202Z,28.64
2023-06-18T12:39:11.710Z,27.09
2023-06-18T12:43:26.168Z,28.85
2023-06-18T12:47:48.851Z,28.35
2023-06-18T12:52:00.546Z,27.91
2023-06-18T12:56:19.395Z,29.97
2023-06-18T13:00:30.955Z,29.10
2023-06-18T13:04:44.932Z,29.42
2023-06-18T13:08:57.264Z,29.33
2023-06-18T13:13:08.901Z,30.77
2023-06-18T13:17:20.527Z,30.34
2023-06-18T13:21:32.101Z,30.89
2023-06-18T13:25:43.877Z,29.46
2023-06-18T13:29:56.442Z,29.77
2023-06-18T13:34:08.527Z,29.94
2023-06-18T13:38:20.093Z,29.08
2023-06-18T13:42:31.690Z,29.34
2023-06-18T13:46:43.343Z,29.73
2023-06-18T13:50:54.928Z,30.17
2023-06-18T13:55:06.733Z,30.35
2023-06-18T13:59:18.342Z,31.22
2023-06-18T14:03:30.122Z,31.40
2023-06-18T14:07:42.380Z,31.53
2023-06-18T14:11:53.944Z,30.90
2023-06-18T14:16:10.110Z,31.74
2023-06-18T14:20:23.597Z,32.11
2023-06-18T14:24:35.853Z,32.76
2023-06-18T14:28:47.705Z,33.32
2023-06-18T14:32:59.264Z,33.24
2023-06-18T14:37:10.881Z,34.55
2023-06-18T14:41:22.434Z,35.45
2023-06-18T14:45:34.000Z,35.38
2023-06-18T14:49:45.628Z,35.77
2023-06-18T14:54:04.473Z,35.59
2023-06-18T14:58:16.717Z,35.52
2023-06-18T15:02:30.127Z,34.99
2023-06-18T15:06:42.960Z,35.40
2023-06-18T15:10:55.985Z,33.99
2023-06-18T15:15:08.527Z,35.41
2023-06-18T15:19:20.091Z,34.70
2023-06-18T15:23:31.662Z,34.05
2023-06-18T15:27:43.261Z,34.78
2023-06-18T15:31:54.810Z,37.02
2023-06-18T15:36:06.372Z,36.97
2023-06-18T15:40:17.925Z,35.50
2023-06-18T15:44:29.480Z,35.98
2023-06-18T15:48:41.115Z,35.14
2023-06-18T15:52:55.030Z,35.47
2023-06-18T15:57:06.832Z,33.39
2023-06-18T16:01:18.415Z,32.86
2023-06-18T16:05:30.017Z,33.57
2023-06-18T16:09:41.717Z,34.16
2023-06-18T16:13:53.330Z,35.09
2023-06-18T16:18:06.733Z,35.20
2023-06-18T16:22:18.425Z,35.73
2023-06-18T16:26:30.567Z,36.02
2023-06-18T16:30:42.118Z,35.88
2023-06-18T16:34:53.672Z,37.01
2023-06-18T16:39:05.386Z,38.15
2023-06-18T16:43:17.582Z,42.21
2023-06-18T16:47:29.188Z,46.83
2023-06-18T16:51:41.403Z,46.97
2023-06-18T16:55:52.944Z,51.09
2023-06-18T17:00:06.155Z,52.88
2023-06-18T17:04:18.358Z,54.89
2023-06-18T17:08:29.912Z,53.78
2023-06-18T17:12:41.496Z,55.59
2023-06-18T17:16:53.103Z,56.91
2023-06-18T17:21:05.873Z,58.29
2023-06-18T17:25:17.430Z,59.83
2023-06-18T17:29:28.994Z,58.21
2023-06-18T17:33:41.353Z,58.17
2023-06-18T17:37:52.974Z,59.94
2023-06-18T17:42:04.785Z,59.97
2023-06-18T17:46:21.305Z,53.94
2023-06-18T17:50:32.941Z,53.07
2023-06-18T17:54:44.526Z,53.70
2023-06-18T17:58:56.060Z,51.53
2023-06-18T18:03:07.692Z,54.45
2023-06-18T18:07:21.671Z,57.96
2023-06-18T18:11:33.367Z,62.60
2023-06-18T18:15:45.003Z,62.87
2023-06-18T18:19:56.985Z,62.24
2023-06-18T18:24:09.387Z,62.70
2023-06-18T18:28:22.054Z,64.79
2023-06-18T18:32:33.624Z,65.70
2023-06-18T18:36:45.208Z,66.56
2023-06-18T18:40:56.752Z,65.67
2023-06-18T18:45:08.756Z,65.32
2023-06-18T18:49:20.291Z,65.83
2023-06-18T18:53:32.012Z,67.62
2023-06-18T18:57:43.592Z,66.57
2023-06-18T19:01:55.148Z,65.52
2023-06-18T19:06:06.692Z,67.35
2023-06-18T19:10:18.234Z,69.22
2023-06-18T19:14:30.389Z,70.08
2023-06-18T19:18:44.018Z,70.85
2023-06-18T19:22:55.639Z,72.17
2023-06-18T19:27:07.329Z,71.61
2023-06-18T19:31:19.115Z,71.83
2023-06-18T19:35:30.678Z,71.27
2023-06-18T19:39:42.339Z,72.00
2023-06-18T19:43:53.957Z,73.61
2023-06-18T19:48:05.673Z,71.77
2023-06-18T19:52:17.395Z,70.02
2023-06-18T19:56:28.960Z,70.24
2023-06-18T20:00:40.542Z,72.12
2023-06-18T20:04:52.125Z,72.00
2023-06-18T20:09:07.758Z,72.54
2023-06-18T20:13:19.325Z,73.36
2023-06-18T20:17:30.914Z,73.88
2023-06-18T20:21:42.535Z,74.80
2023-06-18T20:25:54.833Z,74.63
2023-06-18T20:30:07.207Z,74.37
2023-06-18T20:34:18.760Z,74.57
2023-06-18T20:38:30.351Z,74.45
2023-06-18T20:42:41.948Z,74.87
2023-06-18T20:46:53.585Z,75.43
2023-06-18T20:51:05.355Z,75.20
2023-06-18T20:55:16.966Z,74.55
2023-06-18T20:59:28.522Z,73.15
2023-06-18T21:03:44.376Z,72.77
2023-06-18T21:07:56.038Z,73.53
2023-06-18T21:12:07.990Z,70.58
2023-06-18T21:16:19.661Z,70.33
2023-06-18T21:20:31.272Z,71.15
2023-06-18T21:24:42.930Z,70.71
2023-06-18T21:28:54.531Z,70.75
2023-06-18T22:49:53.420Z,76.88
2023-06-18T22:54:06.037Z,81.49
2023-06-18T22:58:17.881Z,85.20
2023-06-18T23:02:29.504Z,84.74
2023-06-18T23:06:41.095Z,84.60
2023-06-18T23:10:52.742Z,80.29
2023-06-18T23:15:04.760Z,79.37
2023-06-18T23:19:16.349Z,79.08
2023-06-18T23:23:29.867Z,78.18
2023-06-18T23:27:42.325Z,77.78
